Time;durP1;ratioP1;P1;durP2;ratioP2;P2;SDS_P1;SDS_P2;PMS_P1;PMS_P2;Temp;Humidity;BMP_temperature;BMP_pressure;BME280_temperature;BME280_humidity;BME280_pressure;Samples;Min_cycle;Max_cycle;Signal;HPM_P1;HPM_P2
2022/08/13 06:23:20;;;;;;;4.97;2.63;;;24.20;96.20;;;;;;6278825;22;20028;-96
2022/08/13 07:52:05;;;;;;;2.05;0.95;;;24.20;89.90;;;;;;6282797;22;20019;-94
2022/08/13 07:54:40;;;;;;;1.75;1.00;;;24.10;90.00;;;;;;6252342;22;20115;-94
2022/08/13 08:48:34;;;;;;;1.67;0.80;;;25.00;86.50;;;;;;6281939;22;20023;-94
2022/08/13 10:12:39;;;;;;;1.10;0.63;;;26.70;73.90;;;;;;6281430;22;20023;-92
2022/08/13 10:15:05;;;;;;;1.40;0.73;;;26.80;74.20;;;;;;6258744;22;20098;-92
2022/08/13 10:17:49;;;;;;;1.98;0.60;;;26.80;74.10;;;;;;6256049;22;20043;-93
2022/08/13 10:22:52;;;;;;;2.95;1.88;;;26.90;72.70;;;;;;6278098;22;20039;-90
2022/08/13 10:25:18;;;;;;;1.63;0.80;;;26.90;71.80;;;;;;6249586;22;20383;-92
2022/08/13 10:27:48;;;;;;;1.90;0.95;;;27.00;71.80;;;;;;6250531;22;20091;-93
2022/08/13 10:30:20;;;;;;;2.00;0.75;;;27.10;71.90;;;;;;6251192;22;20016;-91
2022/08/13 10:32:55;;;;;;;1.95;0.70;;;27.10;71.70;;;;;;6249799;22;20023;-91
2022/08/13 10:35:27;;;;;;;1.00;0.60;;;27.20;71.80;;;;;;6250004;22;20106;-91
2022/08/13 10:37:57;;;;;;;1.10;0.70;;;27.30;71.60;;;;;;6250186;22;20039;-92
2022/08/13 10:40:28;;;;;;;2.13;0.95;;;27.40;71.60;;;;;;6249227;22;20012;-93
2022/08/13 10:42:54;;;;;;;1.58;0.73;;;27.50;70.90;;;;;;6276738;22;20047;-92
2022/08/13 10:45:31;;;;;;;;;;;;;;;;;;;;;
2022/08/13 10:48:00;;;;;;;2.25;0.90;;;27.70;70.10;;;;;;6276434;22;20456;-93
2022/08/13 10:50:29;;;;;;;1.00;0.60;;;27.80;69.80;;;;;;6249789;22;20026;-91
2022/08/13 10:53:07;;;;;;;1.10;0.63;;;27.90;69.50;;;;;;6250358;22;20015;-91
2022/08/13 10:55:35;;;;;;;1.15;0.80;;;28.00;69.30;;;;;;6251630;22;20054;-91
2022/08/13 10:58:03;;;;;;;1.30;0.70;;;28.10;69.20;;;;;;6249784;22;20016;-91
2022/08/13 11:00:30;;;;;;;10.60;2.28;;;28.20;69.10;;;;;;6249904;22;20023;-92
2022/08/13 11:06:10;;;;;;;3.20;0.90;;;28.50;67.70;;;;;;6277336;22;20016;-92
2022/08/13 11:11:34;;;;;;;14.53;3.23;;;28.60;67.30;;;;;;6277351;22;20034;-90
2022/08/13 11:14:10;;;;;;;1.40;0.80;;;28.80;67.30;;;;;;6249381;22;20031;-92
2022/08/13 11:26:57;;;;;;;1.73;0.83;;;29.20;65.00;;;;;;6246629;22;20020;-92
2022/08/13 11:29:26;;;;;;;1.52;0.70;;;29.40;65.00;;;;;;6219968;23;20251;-92
2022/08/13 11:32:15;;;;;;;;;;;;;;;;;;;;;
2022/08/13 11:40:17;;;;;;;1.40;0.80;;;29.70;62.00;;;;;;6280982;22;20020;-96
2022/08/13 11:45:18;;;;;;;1.20;0.80;;;29.80;61.70;;;;;;6277383;22;20872;-92
2022/08/13 11:47:43;;;;;;;2.17;0.90;;;29.90;61.50;;;;;;6250470;22;20457;-91
2022/08/13 11:50:09;;;;;;;1.00;0.80;;;29.90;61.20;;;;;;6250626;22;20054;-93
2022/08/13 11:52:35;;;;;;;1.50;0.93;;;30.00;61.00;;;;;;6250693;22;20055;-93
2022/08/13 11:55:13;;;;;;;1.35;0.73;;;30.10;62.00;;;;;;6250393;22;20030;-94
2022/08/13 11:58:14;;;;;;;1.27;0.80;;;30.20;60.50;;;;;;6275768;22;20019;-92
2022/08/13 12:00:42;;;;;;;2.63;0.90;;;30.20;60.70;;;;;;6126173;22;20153;-93
2022/08/13 12:03:09;;;;;;;2.35;0.70;;;30.30;59.70;;;;;;6250039;22;20026;-92
2022/08/13 12:05:35;;;;;;;1.95;0.90;;;30.30;59.50;;;;;;6249559;22;20113;-93
2022/08/13 12:08:01;;;;;;;1.65;0.90;;;30.30;59.40;;;;;;6250056;22;20019;-94
2022/08/13 12:10:27;;;;;;;1.42;0.93;;;30.40;59.60;;;;;;6250441;22;20517;-95
2022/08/13 12:12:53;;;;;;;2.05;0.70;;;30.50;59.10;;;;;;6250445;22;20094;-93
2022/08/13 12:15:39;;;;;;;1.55;0.80;;;30.60;58.70;;;;;;6250238;22;20035;-92
2022/08/13 12:18:06;;;;;;;1.83;0.77;;;30.60;58.90;;;;;;6249873;22;20019;-92
2022/08/13 12:20:32;;;;;;;0.98;0.68;;;30.70;59.30;;;;;;6250599;22;20023;-94
2022/08/13 12:27:09;;;;;;;1.42;0.77;;;30.90;58.00;;;;;;6218664;22;20408;-95
2022/08/13 12:29:55;;;;;;;1.25;0.80;;;31.00;56.30;;;;;;6250127;22;20098;-93
2022/08/13 12:32:21;;;;;;;1.15;0.90;;;30.90;57.50;;;;;;6250111;22;20023;-92
2022/08/13 12:34:47;;;;;;;1.73;0.90;;;31.00;58.70;;;;;;6251355;22;20007;-93
2022/08/13 12:48:31;;;;;;;3.15;0.90;;;31.00;57.50;;;;;;6307084;22;20023;-93
2022/08/13 12:50:57;;;;;;;3.58;1.33;;;31.10;57.50;;;;;;6258079;22;20019;-94
2022/08/13 12:53:23;;;;;;;1.42;0.90;;;31.10;57.00;;;;;;6261852;22;20445;-93
2022/08/13 13:11:21;;;;;;;1.17;0.80;;;31.10;56.00;;;;;;6309978;22;20023;-95
2022/08/13 13:13:49;;;;;;;1.27;0.80;;;31.10;55.90;;;;;;6260492;22;20102;-92
2022/08/13 13:16:16;;;;;;;1.35;0.82;;;31.10;55.30;;;;;;6256656;22;20136;-96
2022/08/13 13:21:17;;;;;;;1.92;0.95;;;31.00;56.00;;;;;;6244158;22;20024;-94
2022/08/13 13:23:43;;;;;;;2.13;1.10;;;31.10;55.80;;;;;;6221432;23;20078;-93
2022/08/13 13:26:09;;;;;;;1.60;1.00;;;31.10;55.60;;;;;;6221864;23;20114;-93
2022/08/13 13:28:35;;;;;;;1.92;1.23;;;31.10;55.60;;;;;;6224273;23;20019;-94
2022/08/13 13:31:01;;;;;;;2.08;1.00;;;31.10;55.20;;;;;;6221916;23;20031;-94
2022/08/13 13:57:02;;;;;;;1.92;1.13;;;30.60;56.40;;;;;;6245862;22;20035;-93
2022/08/13 13:59:28;;;;;;;2.20;1.10;;;30.70;56.70;;;;;;6168343;23;20020;-92
2022/08/13 14:01:54;;;;;;;2.97;1.17;;;30.80;57.20;;;;;;6167350;23;20071;-89
2022/08/13 14:04:20;;;;;;;2.65;1.00;;;30.80;56.60;;;;;;6188933;23;20012;-88
2022/08/13 14:06:45;;;;;;;1.48;0.90;;;30.90;56.80;;;;;;6166815;23;20019;-88
2022/08/13 14:09:14;;;;;;;2.05;0.82;;;31.00;56.40;;;;;;6166549;23;20023;-88
2022/08/13 14:11:42;;;;;;;3.00;1.25;;;31.00;56.00;;;;;;6165874;23;20015;-89
2022/08/13 14:14:08;;;;;;;1.55;0.98;;;30.80;55.70;;;;;;6165382;23;20476;-89
2022/08/13 14:16:34;;;;;;;1.35;0.80;;;30.60;56.10;;;;;;6190413;23;20013;-88
2022/08/13 14:19:00;;;;;;;2.38;1.15;;;30.40;56.30;;;;;;6166056;23;20055;-91
2022/08/13 14:21:26;;;;;;;1.50;0.95;;;30.30;56.40;;;;;;6190528;23;20527;-89
2022/08/13 14:23:52;;;;;;;1.52;0.90;;;30.30;56.40;;;;;;6165468;23;20024;-88
2022/08/13 14:26:20;;;;;;;1.85;1.10;;;30.30;56.10;;;;;;6165449;23;20016;-88
2022/08/13 14:28:46;;;;;;;2.20;1.02;;;30.30;55.80;;;;;;6166193;23;20012;-92
2022/08/13 14:31:14;;;;;;;2.70;0.82;;;30.40;56.00;;;;;;6166669;23;20020;-89
2022/08/13 14:33:40;;;;;;;3.30;1.10;;;30.40;55.80;;;;;;6165983;23;20032;-88
2022/08/13 14:36:06;;;;;;;2.08;1.17;;;30.40;55.90;;;;;;6165419;23;20017;-90
2022/08/13 14:38:32;;;;;;;1.52;0.90;;;30.40;56.00;;;;;;6166921;23;20048;-93
2022/08/13 14:41:01;;;;;;;1.80;1.00;;;30.40;55.90;;;;;;6166600;23;20017;-96
2022/08/13 14:43:28;;;;;;;1.17;0.80;;;30.40;55.60;;;;;;6189950;23;20024;-90
2022/08/13 14:45:57;;;;;;;1.52;0.90;;;30.40;56.30;;;;;;6190059;23;20019;-92
2022/08/13 14:48:24;;;;;;;1.25;0.80;;;30.40;55.70;;;;;;6191426;23;20015;-88
2022/08/13 15:10:39;;;;;;;3.53;1.40;;;30.20;55.20;;;;;;6279866;22;20042;-93
2022/08/13 15:29:42;;;;;;;2.00;1.10;;;29.70;55.10;;;;;;6238735;22;20515;-89
2022/08/13 15:39:59;;;;;;;2.90;1.02;;;29.60;55.00;;;;;;6232542;22;20400;-89
2022/08/13 15:45:00;;;;;;;1.85;0.98;;;29.50;55.70;;;;;;6182108;23;20026;-89
2022/08/13 15:57:51;;;;;;;4.10;1.30;;;29.40;56.00;;;;;;6169589;23;20454;-92
2022/08/13 16:06:07;;;;;;;2.40;1.20;;;29.30;56.20;;;;;;6233574;22;20028;-90
2022/08/13 16:11:08;;;;;;;2.47;1.20;;;29.20;56.40;;;;;;6282045;22;20027;-93
2022/08/13 16:13:34;;;;;;;1.65;0.98;;;29.20;56.40;;;;;;6255749;22;20106;-92
2022/08/13 16:16:01;;;;;;;1.67;1.10;;;29.20;56.60;;;;;;6256259;22;20038;-92
2022/08/13 16:18:36;;;;;;;2.38;1.10;;;29.20;56.50;;;;;;6255637;22;20054;-91
2022/08/13 16:21:02;;;;;;;2.13;1.05;;;29.20;56.50;;;;;;6250811;22;20506;-89
2022/08/13 16:23:35;;;;;;;3.45;1.38;;;29.20;56.80;;;;;;6253708;22;20047;-91
2022/08/13 16:26:11;;;;;;;2.42;1.30;;;29.20;57.00;;;;;;6277307;22;20054;-92
2022/08/13 16:28:41;;;;;;;2.72;1.40;;;29.20;57.40;;;;;;6256424;22;20016;-96
2022/08/13 16:31:08;;;;;;;2.15;1.30;;;29.10;57.60;;;;;;6259754;22;20016;-95
2022/08/13 16:33:36;;;;;;;2.42;1.20;;;29.10;57.50;;;;;;6279268;22;20016;-90
2022/08/13 16:36:02;;;;;;;2.60;1.40;;;29.00;57.70;;;;;;6256846;22;20012;-92
2022/08/13 16:38:31;;;;;;;2.35;1.17;;;29.00;58.00;;;;;;6255440;22;20012;-94
2022/08/13 16:40:57;;;;;;;2.13;1.25;;;28.90;58.10;;;;;;6253584;22;20530;-91
2022/08/13 16:43:25;;;;;;;2.45;1.23;;;28.80;58.30;;;;;;6281316;22;20015;-93
2022/08/13 16:45:52;;;;;;;2.33;1.25;;;28.80;58.40;;;;;;6255645;22;20026;-92
2022/08/13 16:48:26;;;;;;;2.67;1.33;;;28.80;58.50;;;;;;6252058;22;20012;-92
2022/08/13 16:50:52;;;;;;;2.45;1.40;;;28.80;58.70;;;;;;6230574;22;20061;-91
2022/08/13 16:53:18;;;;;;;2.22;1.23;;;28.70;58.60;;;;;;6279136;22;20043;-95
2022/08/13 16:55:43;;;;;;;3.67;1.40;;;28.70;58.70;;;;;;6254766;22;20012;-94
2022/08/13 16:58:09;;;;;;;2.10;1.30;;;28.70;58.80;;;;;;6252327;22;20038;-92
2022/08/13 17:00:38;;;;;;;2.75;1.30;;;28.60;58.90;;;;;;6253354;22;20020;-93
2022/08/13 17:14:09;;;;;;;2.15;1.23;;;28.50;59.70;;;;;;6246165;23;20016;-96
2022/08/13 17:16:35;;;;;;;2.63;1.50;;;28.50;59.90;;;;;;6222133;23;20020;-90
2022/08/13 17:19:03;;;;;;;3.42;1.40;;;28.40;60.10;;;;;;6221622;23;20150;-90
2022/08/13 17:21:31;;;;;;;3.35;1.50;;;28.40;60.20;;;;;;6222431;23;20016;-91
2022/08/13 17:23:58;;;;;;;2.97;1.40;;;28.40;60.50;;;;;;6222952;23;20012;-92
2022/08/13 17:26:24;;;;;;;2.95;1.55;;;28.30;60.70;;;;;;6222944;23;20020;-94
2022/08/13 17:28:51;;;;;;;2.97;1.63;;;28.30;61.00;;;;;;6223166;23;20034;-94
2022/08/13 17:31:21;;;;;;;2.20;1.25;;;28.30;61.30;;;;;;6223392;23;20053;-92
2022/08/13 17:36:25;;;;;;;2.60;1.35;;;28.20;61.70;;;;;;6278375;22;20023;-92
2022/08/13 17:38:58;;;;;;;4.10;1.52;;;28.20;62.10;;;;;;6280995;22;20054;-96
2022/08/13 17:41:24;;;;;;;2.25;1.40;;;28.20;62.40;;;;;;6283397;22;20098;-90
2022/08/13 17:43:52;;;;;;;2.50;1.48;;;28.10;62.70;;;;;;6282807;22;20019;-91
2022/08/13 17:46:18;;;;;;;3.35;1.48;;;28.10;63.20;;;;;;6258366;22;20023;-92
2022/08/13 17:51:21;;;;;;;2.80;1.43;;;28.00;63.50;;;;;;6284060;22;20030;-94
2022/08/13 17:53:47;;;;;;;3.25;1.40;;;28.00;63.90;;;;;;6255910;22;20260;-94
2022/08/13 17:56:16;;;;;;;2.50;1.40;;;27.90;64.10;;;;;;6256623;22;20067;-92
2022/08/13 17:58:43;;;;;;;3.00;1.58;;;27.90;64.40;;;;;;6230958;23;20024;-94
2022/08/13 18:01:12;;;;;;;2.35;1.27;;;27.80;64.70;;;;;;6228298;23;20388;-94
2022/08/13 18:03:39;;;;;;;2.42;1.30;;;27.70;64.80;;;;;;6222849;23;20095;-92
2022/08/13 18:06:10;;;;;;;3.40;1.60;;;27.70;65.00;;;;;;6248514;23;20461;-92
2022/08/13 18:08:38;;;;;;;3.13;1.50;;;27.60;65.10;;;;;;6227699;23;20012;-96
2022/08/13 18:11:07;;;;;;;2.60;1.50;;;27.60;65.30;;;;;;6224556;23;20084;-93
2022/08/13 18:13:33;;;;;;;3.35;1.50;;;27.50;65.50;;;;;;6200252;23;20019;-92
2022/08/13 18:16:11;;;;;;;3.70;1.52;;;27.50;65.80;;;;;;6224566;23;20018;-92
2022/08/13 18:18:38;;;;;;;2.70;1.30;;;27.40;65.90;;;;;;6253470;23;20090;-92
2022/08/13 18:21:24;;;;;;;4.15;1.40;;;27.40;66.00;;;;;;6258689;23;20337;-96
2022/08/13 18:34:11;;;;;;;3.33;1.30;;;26.90;66.40;;;;;;6249081;22;20081;-90
2022/08/13 18:41:51;;;;;;;2.47;1.20;;;26.70;66.90;;;;;;6286406;22;20026;-94
2022/08/13 18:44:19;;;;;;;2.63;1.50;;;26.60;67.10;;;;;;6259536;22;20016;-91
2022/08/13 18:46:45;;;;;;;2.50;1.30;;;26.60;67.40;;;;;;6258865;22;20101;-92
2022/08/13 18:49:11;;;;;;;2.30;1.25;;;26.50;67.70;;;;;;6257266;22;20023;-91
2022/08/13 18:51:38;;;;;;;2.40;1.10;;;26.40;67.80;;;;;;6240680;22;20020;-90
2022/08/13 18:56:53;;;;;;;1.85;1.08;;;26.30;68.30;;;;;;6279216;22;20391;-88
2022/08/13 18:59:22;;;;;;;2.28;1.10;;;26.20;68.70;;;;;;6252564;22;20020;-88
2022/08/13 19:01:48;;;;;;;2.67;1.40;;;26.10;68.90;;;;;;6254165;22;20023;-89
2022/08/13 19:04:14;;;;;;;2.60;1.30;;;26.00;69.00;;;;;;6278573;22;20012;-93
2022/08/13 19:06:52;;;;;;;2.22;1.13;;;26.00;69.80;;;;;;6252040;22;20015;-91
2022/08/13 19:09:21;;;;;;;1.60;0.95;;;25.90;69.40;;;;;;6254896;22;20078;-89
2022/08/13 19:11:57;;;;;;;1.88;1.20;;;25.80;69.40;;;;;;6258723;22;20026;-91
2022/08/13 19:14:25;;;;;;;1.30;0.80;;;25.70;69.20;;;;;;6261991;22;20227;-91
2022/08/13 19:16:53;;;;;;;2.40;1.10;;;25.60;69.10;;;;;;6257064;22;20015;-90
2022/08/13 19:19:22;;;;;;;3.40;1.30;;;25.60;69.10;;;;;;6260872;22;20016;-90
2022/08/13 19:22:04;;;;;;;2.67;1.33;;;25.50;68.90;;;;;;6230488;22;20015;-90
2022/08/13 19:24:42;;;;;;;2.25;0.95;;;25.50;69.00;;;;;;6280833;22;20050;-92
2022/08/13 19:27:12;;;;;;;1.98;1.02;;;25.40;69.10;;;;;;6286361;22;20043;-90
2022/08/13 19:37:24;;;;;;;3.00;1.30;;;25.20;69.40;;;;;;6282954;22;20341;-93
2022/08/13 19:39:50;;;;;;;2.78;1.30;;;25.10;69.40;;;;;;6254473;22;20107;-94
2022/08/13 19:42:23;;;;;;;;;;;25.10;69.60;;;;;;6254748;22;20015;-90
2022/08/13 19:45:10;;;;;;;2.72;1.48;;;25.00;70.60;;;;;;6279845;22;20248;-89
2022/08/13 19:47:37;;;;;;;3.17;1.75;;;25.00;69.90;;;;;;6277528;22;20051;-90
2022/08/13 19:50:08;;;;;;;2.67;1.23;;;25.00;69.90;;;;;;6251899;22;20016;-94
2022/08/13 19:52:35;;;;;;;2.22;1.23;;;24.90;69.90;;;;;;6276091;22;20027;-92
2022/08/13 19:55:02;;;;;;;4.20;1.40;;;24.90;70.00;;;;;;6250012;22;20104;-88
2022/08/13 19:57:28;;;;;;;1.98;1.10;;;24.80;70.30;;;;;;6247633;22;20019;-94
2022/08/13 20:00:05;;;;;;;2.10;1.20;;;24.90;70.70;;;;;;6276063;22;21899;-93
2022/08/13 20:02:31;;;;;;;4.03;1.70;;;24.80;70.40;;;;;;6277920;22;20026;-90
2022/08/13 20:04:56;;;;;;;2.05;1.10;;;24.80;70.60;;;;;;6252269;22;20020;-96
2022/08/13 20:07:22;;;;;;;2.22;1.13;;;24.80;70.60;;;;;;6253021;22;20349;-91
2022/08/13 20:10:10;;;;;;;;;;;24.80;70.70;;;;;;6250745;22;20012;-88
2022/08/13 20:12:36;;;;;;;2.28;1.05;;;24.70;71.70;;;;;;6251010;22;20249;-94
2022/08/13 20:15:04;;;;;;;2.55;1.20;;;24.70;71.00;;;;;;6250353;22;20093;-91
2022/08/13 20:17:32;;;;;;;2.58;1.10;;;24.60;71.10;;;;;;6250189;22;20012;-95
2022/08/13 20:19:57;;;;;;;2.28;1.10;;;24.60;71.20;;;;;;6276385;22;20130;-90
2022/08/13 20:22:23;;;;;;;;;;;24.60;71.20;;;;;;6251812;22;20020;-90
2022/08/13 20:31:10;;;;;;;2.35;1.05;;;24.50;71.40;;;;;;6277953;22;20030;-94
2022/08/13 20:33:37;;;;;;;1.90;0.80;;;24.40;71.70;;;;;;6253032;22;20047;-92
2022/08/13 20:36:07;;;;;;;2.22;1.10;;;24.40;71.80;;;;;;6255940;22;20015;-96
2022/08/13 20:38:34;;;;;;;4.68;1.55;;;24.30;71.80;;;;;;6256408;22;20533;-92
2022/08/13 20:41:00;;;;;;;2.17;1.08;;;24.30;72.10;;;;;;6252366;22;20031;-93
2022/08/13 20:43:27;;;;;;;;;;;24.30;72.20;;;;;;6281529;22;20073;-89
2022/08/13 20:56:12;;;;;;;2.63;1.10;;;24.10;73.00;;;;;;6287704;22;20322;-93
2022/08/13 20:58:42;;;;;;;1.17;0.80;;;24.10;73.40;;;;;;6261499;22;20024;-92
2022/08/13 21:01:13;;;;;;;3.45;1.50;;;24.00;73.50;;;;;;6281285;22;20024;-93
2022/08/13 21:19:11;;;;;;;2.65;1.17;;;23.80;74.90;;;;;;6249032;22;20024;-89
2022/08/13 21:21:52;;;;;;;;;;;23.80;75.10;;;;;;6225249;23;20020;-95
2022/08/13 21:24:32;;;;;;;2.58;1.10;;;23.80;75.50;;;;;;6228523;23;19922;-95
2022/08/13 21:26:59;;;;;;;2.03;1.00;;;23.70;75.40;;;;;;6197359;23;20016;-93
2022/08/13 21:34:36;;;;;;;2.35;1.17;;;23.60;76.00;;;;;;6278030;22;20522;-96
2022/08/13 21:37:01;;;;;;;;;;;23.50;76.30;;;;;;6252286;22;20019;-96
2022/08/13 21:39:51;;;;;;;2.50;1.33;;;23.50;77.70;;;;;;6251883;22;20252;-90
2022/08/13 21:42:18;;;;;;;3.40;1.58;;;23.30;77.50;;;;;;6251523;22;20012;-95
2022/08/13 21:44:44;;;;;;;4.00;1.30;;;23.30;77.50;;;;;;6251559;22;20023;-89
2022/08/13 21:47:09;;;;;;;;;;;23.20;77.80;;;;;;6251909;22;20016;-94
2022/08/13 21:49:37;;;;;;;2.78;1.58;;;23.10;79.60;;;;;;6251240;22;19915;-90
2022/08/13 21:52:04;;;;;;;4.95;1.95;;;23.00;78.50;;;;;;6277175;22;20086;-89
2022/08/13 21:54:53;;;;;;;3.40;1.40;;;23.00;78.70;;;;;;6251628;22;20099;-89
2022/08/13 21:58:02;;;;;;;3.80;1.70;;;22.90;79.50;;;;;;6251668;22;20016;-92
2022/08/13 22:00:53;;;;;;;4.90;2.10;;;22.80;80.00;;;;;;6252102;22;20090;-95
2022/08/13 22:03:24;;;;;;;2.78;1.70;;;22.80;80.30;;;;;;6251490;22;20012;-90
2022/08/13 22:05:50;;;;;;;4.00;1.80;;;22.70;80.20;;;;;;6277222;22;20099;-92
2022/08/13 22:08:15;;;;;;;;;;;22.70;80.60;;;;;;6251634;22;20067;-93
2022/08/13 22:10:59;;;;;;;2.65;1.55;;;22.70;82.20;;;;;;6252406;22;19911;-92
2022/08/13 22:13:26;;;;;;;3.80;2.03;;;22.70;81.50;;;;;;6251170;22;20368;-93
2022/08/13 22:16:10;;;;;;;3.88;2.08;;;22.70;81.50;;;;;;6277007;22;20445;-95
2022/08/13 22:18:37;;;;;;;4.25;2.05;;;22.70;82.40;;;;;;6249331;22;20103;-91
2022/08/13 22:21:02;;;;;;;3.70;2.03;;;22.70;82.10;;;;;;6248871;22;20021;-93
2022/08/13 22:23:28;;;;;;;3.95;2.00;;;22.70;82.50;;;;;;6249494;22;20223;-89
2022/08/13 22:25:54;;;;;;;6.55;2.28;;;22.70;82.80;;;;;;6281531;22;20020;-92
2022/08/13 22:31:06;;;;;;;4.35;2.03;;;22.60;85.20;;;;;;6279904;22;20240;-89
2022/08/13 22:33:32;;;;;;;4.10;2.28;;;22.60;83.60;;;;;;6277204;22;20096;-89
2022/08/13 22:36:01;;;;;;;4.78;2.40;;;22.60;83.80;;;;;;6279727;22;20456;-88
2022/08/13 22:38:27;;;;;;;4.65;2.63;;;22.60;84.20;;;;;;6256398;22;20024;-89
2022/08/13 22:40:52;;;;;;;5.35;2.30;;;22.50;84.40;;;;;;6282990;22;20022;-88
2022/08/13 22:43:21;;;;;;;5.00;2.30;;;22.50;84.80;;;;;;6280599;22;20016;-90
2022/08/13 22:45:47;;;;;;;4.65;2.42;;;22.50;85.00;;;;;;6226891;22;20464;-88
2022/08/13 22:48:13;;;;;;;4.22;2.30;;;22.40;85.30;;;;;;6279016;22;20046;-92
2022/08/13 22:50:40;;;;;;;;;;;22.40;85.70;;;;;;6279474;22;20023;-89
2022/08/13 22:53:13;;;;;;;3.97;2.55;;;22.40;87.30;;;;;;6279071;22;20321;-96
2022/08/13 22:55:40;;;;;;;4.82;2.20;;;22.30;85.90;;;;;;6253932;22;20016;-90
2022/08/13 22:58:06;;;;;;;4.07;2.25;;;22.30;85.90;;;;;;6228299;22;20014;-88
2022/08/13 23:08:20;;;;;;;4.60;2.22;;;22.10;87.20;;;;;;6254125;22;20024;-96
2022/08/13 23:10:46;;;;;;;5.30;3.13;;;22.00;87.40;;;;;;6225178;23;20020;-95
2022/08/13 23:13:19;;;;;;;5.38;2.90;;;22.00;87.70;;;;;;6226485;23;20008;-91
2022/08/13 23:15:45;;;;;;;4.50;2.50;;;22.00;88.00;;;;;;6227376;23;20028;-93
2022/08/13 23:18:11;;;;;;;3.88;2.28;;;22.00;88.20;;;;;;6257626;22;20012;-93
2022/08/13 23:20:53;;;;;;;5.93;3.30;;;22.00;88.40;;;;;;6234976;23;20030;-88
2022/08/13 23:25:55;;;;;;;4.93;2.55;;;21.90;88.90;;;;;;6254419;22;20479;-89
2022/08/13 23:28:22;;;;;;;5.28;2.70;;;21.90;89.30;;;;;;6228042;23;20449;-87
2022/08/13 23:30:48;;;;;;;5.18;2.83;;;21.90;89.60;;;;;;6227483;23;20026;-92
2022/08/13 23:33:16;;;;;;;5.85;2.85;;;21.90;90.00;;;;;;6229917;23;20054;-89
2022/08/13 23:35:43;;;;;;;5.32;3.28;;;21.80;90.00;;;;;;6257446;23;20027;-89
2022/08/13 23:38:27;;;;;;;7.82;3.30;;;21.90;90.10;;;;;;6259346;23;20072;-89
2022/08/13 23:41:01;;;;;;;5.68;3.38;;;21.90;90.20;;;;;;6261684;23;20047;-89
2022/08/13 23:43:31;;;;;;;5.65;3.30;;;21.80;90.30;;;;;;6263906;23;20020;-88
2022/08/13 23:46:29;;;;;;;5.60;3.17;;;21.90;90.40;;;;;;6259139;23;20510;-87
2022/08/13 23:51:32;;;;;;;5.25;3.28;;;21.90;90.50;;;;;;6289419;22;20024;-90
2022/08/13 23:53:57;;;;;;;5.65;2.88;;;21.90;90.60;;;;;;6261353;22;20024;-94
2022/08/13 23:58:58;;;;;;;5.07;2.65;;;22.00;90.80;;;;;;6284628;22;20069;-90
